Midvale, Iowa
Current Conditions -  °F | °C
As of 12:53 AM on Sunday 26 Oct 2014 (Local Time) from KAMW Reporting Station
Clear Clear  
Wind Chill: 42°   Ceiling: Unl
Heat Index: 42°   Visibility: 10mi
Dew Point: 38°   Wind: 0mph
Humidity: 85%   Direction: NA
Pressure: 30.05"   Gusts: NA
Location:  41.9069°N, 93.6066°W
Report Text: KAMW 260553Z AUTO 00000KT 10SM CLR 06/03 A3005 RMK AO2 SLP174 T00560033 10117 20056 402110056 58008
Loading
Personal Weather Stations






























Interactive Weather Map
Tropical Storm Tracking
New forecast layout! Learn more

10-Day Weather Forecast

Advertisements
Track Severe Weather on mobile